Time;durP1;ratioP1;P1;durP2;ratioP2;P2;SDS_P1;SDS_P2;PMS_P1;PMS_P2;Temp;Humidity;BMP_temperature;BMP_pressure;BME280_temperature;BME280_humidity;BME280_pressure;Samples;Min_cycle;Max_cycle;Signal;HPM_P1;HPM_P2
2021/06/25 09:46:55;;;;;;;;;;;29.00;95.10;;;;;;1677958;84;20434;-85
2021/06/25 09:49:28;;;;;;;;;;;28.90;95.40;;;;;;1737464;83;20160;-83
2021/06/25 09:52:01;;;;;;;;;;;28.80;95.90;;;;;;1736932;83;20143;-80
2021/06/25 09:54:29;;;;;;;;;;;28.60;93.40;;;;;;1736572;82;20361;-80
2021/06/25 10:02:27;;;;;;;;;;;28.30;92.40;;;;;;1734650;82;20100;-78
2021/06/25 10:05:00;;;;;;;;;;;28.20;94.80;;;;;;1721582;83;20152;-79
2021/06/25 10:07:31;;;;;;;;;;;28.10;98.40;;;;;;1758352;79;20100;-79
2021/06/25 10:10:12;;;;;;;;;;;27.80;99.90;;;;;;1733783;83;20146;-78
2021/06/25 10:12:44;;;;;;;;;;;27.50;99.90;;;;;;1732117;83;20401;-73
2021/06/25 10:15:12;;;;;;;;;;;27.30;99.90;;;;;;1732231;83;20462;-73
2021/06/25 10:17:39;;;;;;;;;;;26.90;99.90;;;;;;1732639;83;20096;-74
2021/06/25 10:20:09;;;;;;;;;;;26.60;99.90;;;;;;1734182;82;20449;-75
2021/06/25 10:22:37;;;;;;;;;;;26.40;99.90;;;;;;1733037;82;20155;-74
2021/06/25 10:25:06;;;;;;;;;;;26.20;99.90;;;;;;1734552;82;20160;-74
2021/06/25 10:27:35;;;;;;;;;;;26.10;99.90;;;;;;1731442;81;20124;-75
2021/06/25 10:30:05;;;;;;;;;;;26.00;99.90;;;;;;1771972;81;20098;-75
2021/06/25 10:32:32;;;;;;;;;;;25.80;99.90;;;;;;1772275;81;20125;-75
2021/06/25 10:34:59;;;;;;;;;;;25.70;99.90;;;;;;1772515;80;20118;-76
2021/06/25 10:37:28;;;;;;;;;;;25.70;99.90;;;;;;1737548;81;20117;-76
2021/06/25 10:39:55;;;;;;;;;;;25.70;99.90;;;;;;1733291;83;20133;-75
2021/06/25 10:42:35;;;;;;;;;;;25.80;99.90;;;;;;1733444;83;20093;-76
2021/06/25 10:45:02;;;;;;;;;;;25.90;99.90;;;;;;1714094;83;20144;-74
2021/06/25 10:47:32;;;;;;;;;;;26.00;99.90;;;;;;1733215;83;20160;-77
2021/06/25 10:50:02;;;;;;;;;;;26.10;99.90;;;;;;1733311;83;20149;-75
2021/06/25 10:52:33;;;;;;;;;;;26.10;99.90;;;;;;1733169;83;20137;-75
2021/06/25 10:55:03;;;;;;;;;;;26.10;99.90;;;;;;1732615;83;20112;-75
2021/06/25 10:57:31;;;;;;;;;;;26.20;99.90;;;;;;1701987;84;20110;-76
2021/06/25 10:59:58;;;;;;;;;;;26.10;99.90;;;;;;1730674;81;20097;-73
2021/06/25 11:02:42;;;;;;;;;;;25.90;99.90;;;;;;1762770;81;20106;-73
2021/06/25 11:05:28;;;;;;;;;;;25.90;99.90;;;;;;1737352;81;20395;-76
2021/06/25 11:07:57;;;;;;;;;;;25.80;99.90;;;;;;1733473;83;20101;-76
2021/06/25 11:10:25;;;;;;;;;;;25.70;99.90;;;;;;1733643;83;20140;-76
2021/06/25 11:13:16;;;;;;;;;;;25.60;99.90;;;;;;1747209;81;20097;-75
2021/06/25 11:15:48;;;;;;;;;;;25.40;99.90;;;;;;1772370;81;20146;-76
2021/06/25 11:18:26;;;;;;;;;;;25.30;99.90;;;;;;1766975;81;20195;-76
2021/06/25 11:20:59;;;;;;;;;;;25.10;99.00;;;;;;1733537;83;20230;-76
2021/06/25 11:23:28;;;;;;;;;;;25.00;92.50;;;;;;1733324;83;20137;-77
2021/06/25 11:26:01;;;;;;;;;;;24.80;90.80;;;;;;1734124;81;20113;-76
2021/06/25 11:28:37;;;;;;;;;;;24.60;95.60;;;;;;1769573;79;20097;-76
2021/06/25 11:31:17;;;;;;;;;;;24.40;92.00;;;;;;1766665;81;20133;-75
2021/06/25 11:34:00;;;;;;;;;;;24.20;91.80;;;;;;1738244;81;20137;-75
2021/06/25 11:36:51;;;;;;;;;;;24.10;93.30;;;;;;1767938;81;20138;-79
2021/06/25 11:39:36;;;;;;;;;;;23.90;99.90;;;;;;1771971;80;20142;-77
2021/06/25 11:42:10;;;;;;;;;;;23.50;95.10;;;;;;1772273;81;20386;-78
2021/06/25 11:44:46;;;;;;;;;;;23.20;94.30;;;;;;1772390;81;20094;-77
2021/06/25 11:47:26;;;;;;;;;;;22.90;96.20;;;;;;1742424;81;20106;-78
2021/06/25 11:52:28;;;;;;;;;;;22.70;97.00;;;;;;1708688;84;20098;-76
2021/06/25 11:55:03;;;;;;;;;;;22.70;95.00;;;;;;1695166;83;20167;-76
2021/06/25 11:57:32;;;;;;;;;;;22.70;99.90;;;;;;1693272;84;20136;-76
2021/06/25 12:00:14;;;;;;;;;;;22.60;99.90;;;;;;1695641;85;20115;-76
2021/06/25 12:02:50;;;;;;;;;;;22.50;99.90;;;;;;1693083;85;20392;-76
2021/06/25 12:05:22;;;;;;;;;;;22.40;99.90;;;;;;1708633;84;20095;-75
2021/06/25 12:08:10;;;;;;;;;;;22.30;99.90;;;;;;1738850;81;20134;-75
2021/06/25 12:10:45;;;;;;;;;;;22.10;99.90;;;;;;1720516;81;20101;-79
2021/06/25 12:13:12;;;;;;;;;;;21.90;99.90;;;;;;1729093;83;20132;-79
2021/06/25 12:15:47;;;;;;;;;;;21.70;99.90;;;;;;1758426;81;20158;-80
2021/06/25 12:18:28;;;;;;;;;;;21.60;99.90;;;;;;1727387;81;20121;-81
2021/06/25 12:21:03;;;;;;;;;;;21.50;99.90;;;;;;1747279;81;20402;-81
2021/06/25 12:23:29;;;;;;;;;;;21.40;99.90;;;;;;1746566;81;20456;-80
2021/06/25 12:25:56;;;;;;;;;;;21.10;99.90;;;;;;1762011;81;20110;-81
2021/06/25 12:28:26;;;;;;;;;;;21.00;99.90;;;;;;1730471;81;20143;-81
2021/06/25 12:31:03;;;;;;;;;;;21.00;99.90;;;;;;1725740;82;20427;-80
2021/06/25 12:33:37;;;;;;;;;;;21.00;99.90;;;;;;1739219;81;20130;-82
2021/06/25 12:36:01;;;;;;;;;;;20.90;99.90;;;;;;1761058;80;20123;-81
2021/06/25 12:38:30;;;;;;;;;;;20.90;99.90;;;;;;1732191;81;20108;-82
2021/06/25 12:41:02;;;;;;;;;;;20.80;99.90;;;;;;1708492;84;20104;-81
2021/06/25 12:43:34;;;;;;;;;;;20.90;99.90;;;;;;1707830;83;20411;-79
2021/06/25 12:46:10;;;;;;;;;;;21.00;99.90;;;;;;1735557;82;20101;-82
